createdAt,value
2022-12-04T00:02:12.021Z,22.87
2022-12-04T00:04:38.721Z,23.50
2022-12-04T00:07:05.298Z,21.87
2022-12-04T00:09:31.923Z,21.10
2022-12-04T00:11:58.540Z,20.77
2022-12-04T00:14:25.176Z,22.73
2022-12-04T00:16:51.920Z,22.77
2022-12-04T00:19:18.641Z,22.10
2022-12-04T00:21:45.921Z,22.67
2022-12-04T00:24:12.887Z,21.50
2022-12-04T00:26:39.547Z,21.73
2022-12-04T00:29:06.226Z,21.93
2022-12-04T00:31:33.459Z,21.70
2022-12-04T00:34:00.839Z,21.03
2022-12-04T00:36:29.874Z,21.37
2022-12-04T00:38:58.544Z,22.10
2022-12-04T00:41:27.824Z,21.80
2022-12-04T00:43:54.825Z,19.40
2022-12-04T00:46:22.149Z,21.07
2022-12-04T00:48:49.324Z,21.67
2022-12-04T00:51:18.418Z,22.00
2022-12-04T00:53:45.633Z,21.03
2022-12-04T00:56:14.990Z,20.10
2022-12-04T00:58:41.934Z,20.30
2022-12-04T01:01:14.686Z,21.03
2022-12-04T01:03:41.814Z,22.53
2022-12-04T01:06:21.573Z,20.73
2022-12-04T01:08:50.140Z,20.77
2022-12-04T01:11:17.545Z,21.80
2022-12-04T01:13:44.731Z,19.43
2022-12-04T01:16:23.396Z,20.87
2022-12-04T01:18:50.541Z,21.17
2022-12-04T01:21:18.064Z,21.53
2022-12-04T01:23:44.749Z,19.70
2022-12-04T01:26:12.615Z,21.10
2022-12-04T01:28:39.704Z,18.83
2022-12-04T01:31:08.276Z,19.90
2022-12-04T01:33:36.272Z,19.70
2022-12-04T01:36:08.297Z,19.40
2022-12-04T01:38:36.115Z,21.50
2022-12-04T01:41:03.690Z,21.20
2022-12-04T01:43:32.296Z,21.53
2022-12-04T01:46:01.031Z,20.27
2022-12-04T01:48:33.928Z,23.03
2022-12-04T01:51:14.602Z,21.40
2022-12-04T01:53:45.343Z,22.50
2022-12-04T01:56:13.501Z,22.93
2022-12-04T01:58:46.164Z,20.23
2022-12-04T02:01:13.131Z,20.27
2022-12-04T02:03:39.925Z,21.70
2022-12-04T02:06:07.262Z,21.90
2022-12-04T02:08:34.951Z,21.03
2022-12-04T02:11:19.781Z,22.17
2022-12-04T02:13:49.250Z,20.40
2022-12-04T02:16:32.245Z,20.43
2022-12-04T02:19:39.457Z,20.90
2022-12-04T02:22:16.789Z,20.63
2022-12-04T02:24:50.328Z,20.80
2022-12-04T02:27:44.560Z,21.10
2022-12-04T02:30:14.728Z,18.50
2022-12-04T02:32:50.616Z,20.13
2022-12-04T02:35:33.112Z,19.87
2022-12-04T02:38:25.020Z,21.47
2022-12-04T02:40:58.596Z,19.77
2022-12-04T02:43:52.730Z,20.67
2022-12-04T02:46:38.519Z,19.87
2022-12-04T02:49:12.151Z,21.87
2022-12-04T02:51:43.388Z,17.20
2022-12-04T02:54:25.483Z,21.27
2022-12-04T02:56:54.470Z,20.73
2022-12-04T02:59:48.768Z,20.97
2022-12-04T03:02:32.052Z,20.30
2022-12-04T03:05:03.010Z,20.33
2022-12-04T03:07:37.016Z,21.37
2022-12-04T03:10:09.076Z,21.67
2022-12-04T03:12:50.697Z,21.60
2022-12-04T03:15:37.440Z,18.80
2022-12-04T03:18:16.181Z,19.40
2022-12-04T03:20:45.189Z,19.63
2022-12-04T03:23:18.082Z,19.70
2022-12-04T03:25:57.727Z,19.23
2022-12-04T03:28:53.543Z,20.33
2022-12-04T03:31:38.059Z,19.40
2022-12-04T03:34:07.503Z,20.57
2022-12-04T03:36:42.797Z,22.43
2022-12-04T03:39:17.893Z,22.30
2022-12-04T03:41:59.579Z,18.70
2022-12-04T03:44:58.035Z,19.13
2022-12-04T03:48:06.508Z,20.70
2022-12-04T03:50:50.003Z,20.77
2022-12-04T03:53:41.767Z,18.97
2022-12-04T03:56:19.087Z,20.87
2022-12-04T03:58:49.325Z,21.47
2022-12-04T04:01:20.189Z,20.40
2022-12-04T04:03:53.196Z,19.97
2022-12-04T04:06:27.054Z,16.17
2022-12-04T04:08:58.790Z,20.03
2022-12-04T04:11:28.730Z,18.93
2022-12-04T04:14:22.528Z,20.70
2022-12-04T04:17:15.063Z,17.67
2022-12-04T04:20:04.079Z,21.00
2022-12-04T04:22:55.766Z,19.07
2022-12-04T04:25:25.819Z,21.73
2022-12-04T04:27:57.693Z,21.37
2022-12-04T04:30:24.979Z,19.33
2022-12-04T04:33:03.168Z,20.43
2022-12-04T04:35:52.673Z,20.63
2022-12-04T04:38:39.371Z,20.40
2022-12-04T04:41:23.595Z,18.73
2022-12-04T04:44:34.607Z,20.83
2022-12-04T04:47:06.531Z,19.50
2022-12-04T04:49:35.898Z,19.77
2022-12-04T04:52:03.019Z,20.53
2022-12-04T04:54:32.118Z,21.17
2022-12-04T04:56:58.778Z,21.20
2022-12-04T04:59:25.436Z,21.97
2022-12-04T05:01:52.463Z,20.33
2022-12-04T05:04:19.179Z,19.57
2022-12-04T05:06:45.824Z,21.90
2022-12-04T05:09:12.512Z,20.07
2022-12-04T05:11:39.105Z,23.10
2022-12-04T05:14:06.136Z,20.13
2022-12-04T05:16:32.887Z,21.10
2022-12-04T05:19:18.218Z,21.83
2022-12-04T05:21:44.811Z,17.77
2022-12-04T05:24:11.463Z,20.70
2022-12-04T05:26:38.133Z,18.60
2022-12-04T05:29:04.770Z,23.10
2022-12-04T05:31:31.692Z,20.03
2022-12-04T05:33:58.473Z,19.80
2022-12-04T05:36:25.120Z,21.13
2022-12-04T05:38:52.620Z,21.83
2022-12-04T05:41:19.260Z,21.13
2022-12-04T05:43:45.859Z,23.07
2022-12-04T05:46:12.578Z,20.73
2022-12-04T05:48:39.261Z,20.50
2022-12-04T05:51:10.751Z,18.90
2022-12-04T05:53:38.306Z,20.77
2022-12-04T05:56:07.355Z,20.60
2022-12-04T05:58:38.445Z,21.20
2022-12-04T06:01:13.112Z,19.27
2022-12-04T06:03:39.775Z,21.03
2022-12-04T06:06:21.057Z,20.90
2022-12-04T06:08:53.122Z,21.23
2022-12-04T06:11:23.044Z,21.00
2022-12-04T06:13:50.175Z,20.40
2022-12-04T06:16:22.472Z,20.73
2022-12-04T06:18:51.684Z,22.63
2022-12-04T06:21:19.332Z,22.20
2022-12-04T06:23:46.041Z,20.80
2022-12-04T06:26:13.075Z,21.07
2022-12-04T06:28:39.967Z,21.80
2022-12-04T06:31:09.517Z,22.90
2022-12-04T06:33:36.321Z,21.47
2022-12-04T06:36:18.039Z,22.43
2022-12-04T06:38:45.705Z,21.80
2022-12-04T06:41:16.195Z,22.30
2022-12-04T06:43:43.451Z,20.30
2022-12-04T06:46:25.415Z,21.90
2022-12-04T06:48:54.147Z,23.23
2022-12-04T06:51:24.120Z,23.23
2022-12-04T06:53:51.183Z,23.20
2022-12-04T06:56:20.526Z,22.70
2022-12-04T06:58:48.907Z,20.43
2022-12-04T07:01:17.954Z,20.50
2022-12-04T07:03:51.268Z,22.63
2022-12-04T07:06:25.885Z,22.80
2022-12-04T07:08:54.872Z,23.37
2022-12-04T07:11:22.403Z,23.10
2022-12-04T07:13:50.615Z,23.17
2022-12-04T07:16:19.730Z,22.00
2022-12-04T07:18:46.916Z,21.63
2022-12-04T07:21:19.988Z,23.27
2022-12-04T07:23:51.383Z,21.60
2022-12-04T07:26:18.748Z,22.33
2022-12-04T07:28:45.758Z,22.53
2022-12-04T07:31:15.128Z,23.13
2022-12-04T07:33:42.668Z,22.63
2022-12-04T07:36:12.853Z,23.33
2022-12-04T07:38:39.833Z,22.40
2022-12-04T07:41:07.639Z,21.07
2022-12-04T07:43:34.713Z,21.43
2022-12-04T07:46:10.998Z,23.00
2022-12-04T07:48:37.699Z,22.27
2022-12-04T07:51:06.876Z,24.30
2022-12-04T07:53:34.997Z,22.00
2022-12-04T07:56:02.293Z,23.87
2022-12-04T07:58:28.915Z,23.07
2022-12-04T08:00:55.709Z,24.47
2022-12-04T08:03:22.419Z,23.77
2022-12-04T08:05:49.051Z,21.87
2022-12-04T08:08:15.749Z,25.03
2022-12-04T08:10:42.457Z,21.50
2022-12-04T08:13:09.081Z,21.17
2022-12-04T08:15:35.841Z,22.90
2022-12-04T08:18:02.600Z,23.83
2022-12-04T08:20:29.598Z,23.73
2022-12-04T08:22:56.326Z,23.87
2022-12-04T08:25:23.229Z,22.80
2022-12-04T08:27:49.999Z,25.90
2022-12-04T08:30:16.920Z,21.63
2022-12-04T08:32:43.905Z,22.47
2022-12-04T08:35:10.480Z,22.90
2022-12-04T08:37:37.100Z,23.57
2022-12-04T08:40:04.594Z,22.13
2022-12-04T08:42:31.139Z,25.33
2022-12-04T08:44:57.773Z,19.63
2022-12-04T08:47:24.372Z,23.20
2022-12-04T08:49:50.931Z,22.40
2022-12-04T08:52:17.622Z,25.70
2022-12-04T08:54:44.308Z,24.83
2022-12-04T08:57:10.951Z,25.60
2022-12-04T08:59:37.556Z,23.17
2022-12-04T09:02:04.241Z,23.77
2022-12-04T09:04:30.938Z,21.93
2022-12-04T09:06:57.602Z,25.50
2022-12-04T09:09:24.221Z,22.50
2022-12-04T09:11:50.914Z,23.10
2022-12-04T09:14:19.285Z,24.03
2022-12-04T09:16:46.491Z,23.53
2022-12-04T09:19:13.153Z,24.50
2022-12-04T09:21:39.798Z,21.37
2022-12-04T09:24:06.504Z,26.10
2022-12-04T09:26:33.349Z,21.67
2022-12-04T09:29:01.720Z,21.73
2022-12-04T09:31:28.873Z,21.90
2022-12-04T09:33:57.908Z,23.43
2022-12-04T09:36:25.008Z,23.03
2022-12-04T09:38:53.230Z,22.57
2022-12-04T09:41:53.915Z,24.23
2022-12-04T09:44:35.148Z,25.00
2022-12-04T09:47:27.500Z,20.87
2022-12-04T09:50:00.195Z,20.23
2022-12-04T09:52:48.794Z,21.00
2022-12-04T09:55:40.329Z,23.53
2022-12-04T09:58:14.041Z,21.73
2022-12-04T10:00:44.377Z,21.13
2022-12-04T10:03:16.475Z,19.53
2022-12-04T10:06:12.544Z,23.70
2022-12-04T10:08:41.669Z,21.00
2022-12-04T10:11:44.583Z,21.03
2022-12-04T10:14:46.142Z,21.23
2022-12-04T10:17:30.875Z,20.13
2022-12-04T10:20:17.102Z,20.40
2022-12-04T10:23:14.121Z,21.17
2022-12-04T10:25:42.001Z,18.70
2022-12-04T10:28:20.675Z,18.87
2022-12-04T10:30:48.500Z,19.77
2022-12-04T10:33:41.287Z,19.27
2022-12-04T10:36:13.858Z,18.73
2022-12-04T10:38:42.968Z,20.37
2022-12-04T10:41:29.418Z,18.57
2022-12-04T10:43:56.096Z,21.37
2022-12-04T10:46:29.309Z,22.80
2022-12-04T10:49:03.200Z,22.20
2022-12-04T10:51:40.696Z,21.17
2022-12-04T10:54:48.316Z,20.60
2022-12-04T10:57:15.231Z,19.43
2022-12-04T10:59:56.510Z,19.17
2022-12-04T11:02:32.988Z,18.73
2022-12-04T11:05:05.544Z,19.83
2022-12-04T11:07:47.547Z,21.60
2022-12-04T11:10:38.863Z,19.77
2022-12-04T11:13:17.660Z,21.80
2022-12-04T11:15:45.576Z,20.97
2022-12-04T11:18:26.624Z,19.40
2022-12-04T11:20:56.453Z,20.37
2022-12-04T11:23:24.377Z,19.13
2022-12-04T11:25:54.507Z,22.00
2022-12-04T11:28:47.112Z,20.07
2022-12-04T11:31:19.920Z,21.67
2022-12-04T11:33:49.816Z,20.93
2022-12-04T11:36:31.067Z,21.80
2022-12-04T11:39:19.042Z,20.27
2022-12-04T11:41:45.850Z,20.60
2022-12-04T11:44:26.952Z,20.57
2022-12-04T11:46:55.838Z,20.53
2022-12-04T11:49:25.404Z,18.47
2022-12-04T11:52:24.503Z,21.07
2022-12-04T11:55:02.364Z,22.70
2022-12-04T11:57:50.596Z,20.43
2022-12-04T12:00:22.775Z,19.83
2022-12-04T12:03:10.557Z,21.90
2022-12-04T12:06:08.502Z,21.80
2022-12-04T12:08:43.247Z,20.63
2022-12-04T12:11:37.529Z,20.87
2022-12-04T12:14:21.671Z,20.13
2022-12-04T12:16:59.053Z,21.80
2022-12-04T12:19:46.678Z,22.47
2022-12-04T12:22:36.639Z,17.30
2022-12-04T12:25:27.305Z,22.73
2022-12-04T12:28:04.522Z,20.57
2022-12-04T12:31:06.019Z,21.90
2022-12-04T12:33:46.036Z,19.63
2022-12-04T12:36:15.085Z,19.70
2022-12-04T12:39:03.148Z,20.13
2022-12-04T12:41:36.864Z,19.10
2022-12-04T12:44:11.693Z,20.37
2022-12-04T12:46:49.013Z,18.50
2022-12-04T12:49:39.776Z,20.30
2022-12-04T12:52:35.118Z,19.77
2022-12-04T12:55:18.088Z,19.43
2022-12-04T12:57:52.244Z,20.23
2022-12-04T13:00:23.049Z,19.80
2022-12-04T13:02:53.707Z,19.57
2022-12-04T13:05:27.381Z,19.90
2022-12-04T13:08:15.768Z,18.97
2022-12-04T13:10:46.024Z,18.93
2022-12-04T13:13:23.222Z,18.87
2022-12-04T13:16:12.895Z,17.37
2022-12-04T13:18:49.613Z,19.00
2022-12-04T13:21:45.524Z,19.37
2022-12-04T13:24:30.308Z,19.53
2022-12-04T13:27:07.759Z,18.57
2022-12-04T13:29:52.207Z,17.60
2022-12-04T13:32:56.757Z,15.00
2022-12-04T13:36:00.166Z,15.97
2022-12-04T13:38:33.550Z,17.50
2022-12-04T13:41:07.022Z,17.27
2022-12-04T13:43:44.467Z,16.30
2022-12-04T13:46:32.060Z,16.57
2022-12-04T13:49:25.951Z,17.17
2022-12-04T13:51:53.131Z,16.37
2022-12-04T13:54:23.209Z,17.90
2022-12-04T13:56:52.544Z,17.80
2022-12-04T13:59:22.224Z,17.17
2022-12-04T14:01:52.573Z,16.87
2022-12-04T14:04:27.211Z,18.67
2022-12-04T14:06:57.032Z,17.80
2022-12-04T14:09:41.627Z,16.60
2022-12-04T14:12:13.927Z,18.47
2022-12-04T14:14:45.739Z,15.87
2022-12-04T14:17:34.512Z,15.23
2022-12-04T14:20:08.420Z,18.67
2022-12-04T14:22:37.827Z,17.93
2022-12-04T14:25:13.315Z,15.93
2022-12-04T14:27:42.765Z,18.60
2022-12-04T14:30:20.425Z,17.60
2022-12-04T14:32:50.511Z,19.17
2022-12-04T14:35:23.811Z,18.93
2022-12-04T14:38:04.254Z,17.57
2022-12-04T14:40:39.019Z,20.47
2022-12-04T14:43:05.792Z,18.97
2022-12-04T14:45:43.674Z,17.10
2022-12-04T14:48:36.295Z,18.97
2022-12-04T14:51:33.072Z,19.90
2022-12-04T14:54:25.115Z,19.67
2022-12-04T14:57:17.921Z,20.60
2022-12-04T14:59:46.272Z,20.10
2022-12-04T15:02:18.454Z,19.77
2022-12-04T15:04:47.198Z,21.20
2022-12-04T15:07:26.170Z,19.50
2022-12-04T15:10:16.718Z,21.63
2022-12-04T15:12:52.369Z,19.93
2022-12-04T15:15:25.099Z,20.63
2022-12-04T15:18:13.598Z,20.63
2022-12-04T15:20:58.060Z,20.80
2022-12-04T15:23:41.355Z,22.33
2022-12-04T15:26:13.035Z,20.47
2022-12-04T15:28:47.588Z,20.07
2022-12-04T15:31:38.431Z,21.23
2022-12-04T15:34:13.364Z,20.63
2022-12-04T15:37:00.592Z,22.10
2022-12-04T15:39:29.141Z,23.23
2022-12-04T15:42:22.279Z,18.37
2022-12-04T15:44:52.565Z,22.20
2022-12-04T15:47:25.899Z,20.27
2022-12-04T15:49:52.781Z,20.87
2022-12-04T15:52:21.695Z,19.77
2022-12-04T15:54:56.691Z,21.47
2022-12-04T15:57:29.377Z,21.93
2022-12-04T16:00:01.038Z,23.27
2022-12-04T16:02:41.549Z,20.60
2022-12-04T16:05:20.065Z,20.77
2022-12-04T16:07:58.300Z,19.33
2022-12-04T16:10:28.421Z,19.83
2022-12-04T16:13:04.604Z,19.97
2022-12-04T16:15:49.161Z,18.30
2022-12-04T16:18:15.743Z,19.53
2022-12-04T16:20:42.396Z,19.40
2022-12-04T16:23:09.678Z,19.50
2022-12-04T16:25:36.321Z,18.67
2022-12-04T16:28:02.997Z,19.07
2022-12-04T16:30:33.339Z,21.73
2022-12-04T16:32:59.931Z,22.43
2022-12-04T16:35:26.586Z,20.27
2022-12-04T16:37:53.218Z,20.50
2022-12-04T16:40:19.873Z,18.33
2022-12-04T16:42:46.461Z,19.20
2022-12-04T16:45:27.606Z,18.97
2022-12-04T16:47:54.426Z,21.17
2022-12-04T16:50:21.709Z,19.60
2022-12-04T16:52:48.328Z,20.70
2022-12-04T16:55:51.128Z,18.23
2022-12-04T16:58:19.532Z,17.17
2022-12-04T17:00:56.625Z,18.90
2022-12-04T17:03:33.122Z,20.23
2022-12-04T17:06:00.914Z,20.17
2022-12-04T17:08:28.295Z,20.27
2022-12-04T17:10:54.955Z,19.63
2022-12-04T17:13:22.209Z,19.47
2022-12-04T17:15:49.070Z,19.27
2022-12-04T17:18:20.785Z,19.27
2022-12-04T17:20:47.845Z,19.30
2022-12-04T17:23:14.653Z,19.97
2022-12-04T17:25:41.313Z,19.50
2022-12-04T17:28:08.053Z,19.20
2022-12-04T17:30:36.429Z,18.43
2022-12-04T17:33:04.499Z,18.00
2022-12-04T17:35:31.365Z,19.63
2022-12-04T17:38:03.928Z,20.63
2022-12-04T17:40:32.755Z,18.90
2022-12-04T17:42:59.635Z,18.53
2022-12-04T17:45:26.268Z,18.23
2022-12-04T17:47:52.923Z,17.13
2022-12-04T17:50:19.546Z,18.77
2022-12-04T17:52:46.347Z,16.60
2022-12-04T17:55:13.047Z,17.50
2022-12-04T17:57:39.749Z,18.00
2022-12-04T18:00:07.661Z,18.27
2022-12-04T18:02:34.312Z,17.97
2022-12-04T18:05:00.968Z,15.90
2022-12-04T18:07:27.702Z,17.40
2022-12-04T18:09:54.588Z,18.23
2022-12-04T18:12:21.463Z,17.17
2022-12-04T18:14:48.080Z,15.97
2022-12-04T18:17:17.475Z,15.37
2022-12-04T18:19:44.099Z,16.70
2022-12-04T18:22:10.885Z,18.40
2022-12-04T18:24:37.660Z,15.50
2022-12-04T18:27:05.378Z,16.17
2022-12-04T18:29:31.969Z,15.60
2022-12-04T18:31:58.731Z,15.70
2022-12-04T18:34:25.453Z,15.87
2022-12-04T18:36:52.463Z,15.63
2022-12-04T18:39:21.462Z,16.33
2022-12-04T18:41:48.795Z,15.30
2022-12-04T18:44:16.500Z,14.60
2022-12-04T18:46:43.213Z,15.30
2022-12-04T18:49:10.657Z,14.50
2022-12-04T18:51:46.983Z,15.93
2022-12-04T18:54:21.339Z,16.80
2022-12-04T18:56:48.307Z,15.90
2022-12-04T18:59:23.640Z,17.43
2022-12-04T19:01:51.302Z,16.93
2022-12-04T19:04:19.670Z,18.57
2022-12-04T19:06:48.683Z,16.70
2022-12-04T19:09:19.487Z,16.70
2022-12-04T19:11:46.970Z,16.80
2022-12-04T19:14:22.782Z,16.90
2022-12-04T19:16:50.861Z,17.50
2022-12-04T19:19:18.014Z,17.27
2022-12-04T19:21:44.720Z,16.53
2022-12-04T19:24:12.133Z,18.13
2022-12-04T19:26:39.030Z,15.90
2022-12-04T19:29:07.057Z,17.83
2022-12-04T19:31:36.986Z,19.33
2022-12-04T19:34:04.238Z,15.40
2022-12-04T19:36:33.018Z,19.30
2022-12-04T19:39:01.095Z,19.50
2022-12-04T19:41:30.797Z,18.03
2022-12-04T19:44:01.132Z,17.53
2022-12-04T19:46:31.012Z,18.77
2022-12-04T19:49:02.103Z,17.90
2022-12-04T19:51:32.072Z,17.30
2022-12-04T19:53:59.111Z,17.77
2022-12-04T19:56:27.544Z,19.40
2022-12-04T19:58:56.435Z,17.80
2022-12-04T20:01:25.353Z,18.17
2022-12-04T20:03:52.903Z,17.50
2022-12-04T20:06:22.105Z,17.33
2022-12-04T20:08:54.785Z,16.80
2022-12-04T20:11:21.974Z,17.00
2022-12-04T20:13:49.454Z,15.53
2022-12-04T20:16:18.043Z,16.60
2022-12-04T20:18:45.589Z,16.27
2022-12-04T20:21:13.075Z,16.80
2022-12-04T20:23:50.970Z,15.27
2022-12-04T20:26:23.616Z,17.20
2022-12-04T20:28:50.489Z,15.57
2022-12-04T20:31:21.547Z,15.60
2022-12-04T20:33:50.528Z,16.50
2022-12-04T20:36:21.831Z,15.83
2022-12-04T20:38:51.349Z,15.10
2022-12-04T20:41:18.677Z,15.07
2022-12-04T20:43:47.070Z,15.87
2022-12-04T20:46:34.826Z,16.23
2022-12-04T20:49:06.224Z,16.07
2022-12-04T20:51:38.988Z,17.33
2022-12-04T20:54:06.649Z,15.43
2022-12-04T20:56:36.684Z,17.20
2022-12-04T20:59:06.074Z,15.27
2022-12-04T21:01:33.308Z,15.83
2022-12-04T21:04:00.885Z,16.00
2022-12-04T21:06:36.413Z,16.30
2022-12-04T21:09:08.804Z,16.23
2022-12-04T21:11:41.054Z,16.90
2022-12-04T21:14:30.393Z,15.27
2022-12-04T21:16:57.503Z,15.50
2022-12-04T21:19:24.664Z,15.73
2022-12-04T21:21:51.612Z,15.80
2022-12-04T21:24:20.188Z,17.70
2022-12-04T21:26:47.397Z,16.50
2022-12-04T21:29:15.231Z,16.83
2022-12-04T21:31:42.533Z,17.67
2022-12-04T21:34:11.822Z,16.60
2022-12-04T21:36:38.461Z,17.10
2022-12-04T21:39:05.914Z,17.80
2022-12-04T21:41:51.272Z,17.97
2022-12-04T21:44:19.848Z,17.20
2022-12-04T21:46:46.851Z,17.27
2022-12-04T21:49:15.392Z,16.63
2022-12-04T21:51:58.845Z,18.57
2022-12-04T21:54:27.665Z,17.27
2022-12-04T21:56:55.064Z,17.43
2022-12-04T21:59:21.805Z,18.50
2022-12-04T22:01:48.625Z,17.60
2022-12-04T22:04:15.339Z,17.23
2022-12-04T22:06:42.300Z,17.93
2022-12-04T22:09:10.949Z,19.03
2022-12-04T22:11:38.875Z,18.47
2022-12-04T22:14:05.569Z,18.57
2022-12-04T22:16:35.759Z,19.60
2022-12-04T22:19:05.091Z,19.03
2022-12-04T22:21:31.788Z,18.77
2022-12-04T22:24:00.677Z,17.23
2022-12-04T22:26:28.681Z,17.20
2022-12-04T22:28:55.985Z,17.47
2022-12-04T22:31:25.105Z,18.60
2022-12-04T22:33:53.297Z,17.30
2022-12-04T22:36:22.521Z,17.70
2022-12-04T22:39:08.717Z,21.70
2022-12-04T22:41:36.552Z,17.90
2022-12-04T22:44:03.974Z,18.10
2022-12-04T22:46:30.844Z,20.03
2022-12-04T22:48:58.757Z,18.40
2022-12-04T22:51:25.507Z,17.00
2022-12-04T22:53:54.469Z,17.80
2022-12-04T22:56:25.594Z,16.70
2022-12-04T22:58:53.217Z,19.63
2022-12-04T23:01:21.249Z,18.40
2022-12-04T23:03:48.363Z,18.43
2022-12-04T23:06:16.301Z,19.07
2022-12-04T23:08:44.217Z,18.03
2022-12-04T23:11:14.258Z,17.27
2022-12-04T23:13:41.466Z,18.33
2022-12-04T23:16:09.823Z,17.07
2022-12-04T23:18:37.164Z,18.70
2022-12-04T23:21:12.178Z,18.77
2022-12-04T23:23:41.154Z,17.37
2022-12-04T23:26:11.186Z,17.43
2022-12-04T23:28:37.959Z,18.20
2022-12-04T23:31:05.173Z,18.20
2022-12-04T23:33:32.705Z,17.70
2022-12-04T23:36:00.833Z,17.20
2022-12-04T23:38:28.739Z,17.37
2022-12-04T23:41:28.758Z,16.77
2022-12-04T23:43:56.544Z,17.80
2022-12-04T23:46:27.430Z,15.27
2022-12-04T23:48:54.729Z,15.57
2022-12-04T23:51:21.778Z,16.10
2022-12-04T23:53:49.257Z,18.90
2022-12-04T23:56:18.871Z,17.37
2022-12-04T23:58:47.569Z,16.27
